Time;durP1;ratioP1;P1;durP2;ratioP2;P2;SDS_P1;SDS_P2;PMS_P1;PMS_P2;Temp;Humidity;BMP_temperature;BMP_pressure;BME280_temperature;BME280_humidity;BME280_pressure;Samples;Min_cycle;Max_cycle;Signal;HPM_P1;HPM_P2
2021/10/31 00:00:05;;;;;;;1.95;1.30;;;22.00;53.50;;;;;;5048939;28;20428;-62
2021/10/31 00:02:31;;;;;;;2.30;1.55;;;22.00;53.50;;;;;;5036332;28;20042;-62
2021/10/31 00:04:57;;;;;;;2.25;1.50;;;21.90;53.60;;;;;;5050912;28;20094;-67
2021/10/31 00:07:22;;;;;;;2.45;1.40;;;21.90;53.50;;;;;;5057753;28;20021;-67
2021/10/31 00:09:48;;;;;;;3.28;1.38;;;21.90;53.60;;;;;;5030527;28;20061;-64
2021/10/31 00:12:14;;;;;;;3.08;1.60;;;21.90;53.60;;;;;;5042092;28;20087;-67
2021/10/31 00:14:40;;;;;;;2.45;1.60;;;21.90;53.70;;;;;;5043263;28;20036;-67
2021/10/31 00:17:06;;;;;;;1.90;1.38;;;21.90;53.60;;;;;;5043511;28;20021;-67
2021/10/31 00:19:32;;;;;;;1.90;1.30;;;21.90;53.70;;;;;;5050277;28;20052;-66
2021/10/31 00:21:58;;;;;;;2.00;1.33;;;21.80;53.60;;;;;;5054840;28;20037;-62
2021/10/31 00:24:24;;;;;;;2.55;1.55;;;21.80;53.60;;;;;;5040880;28;20044;-61
2021/10/31 00:26:50;;;;;;;2.72;1.40;;;21.80;53.70;;;;;;5039465;28;20017;-67
2021/10/31 00:29:16;;;;;;;2.53;1.45;;;21.80;53.70;;;;;;5049595;28;20032;-66
2021/10/31 00:31:43;;;;;;;2.53;1.42;;;21.80;53.70;;;;;;5053978;28;20079;-67
2021/10/31 00:34:09;;;;;;;2.20;1.40;;;21.80;53.70;;;;;;5047526;28;20082;-63
2021/10/31 00:36:35;;;;;;;1.85;1.30;;;21.80;53.80;;;;;;5052767;28;20111;-61
2021/10/31 00:39:00;;;;;;;1.90;1.40;;;21.80;53.80;;;;;;5047417;28;20098;-63
2021/10/31 00:41:26;;;;;;;2.75;1.50;;;21.70;53.80;;;;;;5051173;28;20059;-61
2021/10/31 00:43:51;;;;;;;2.13;1.25;;;21.70;53.80;;;;;;5033322;28;20122;-62
2021/10/31 00:46:18;;;;;;;2.30;1.70;;;21.70;53.80;;;;;;5045574;28;20131;-67
2021/10/31 00:48:44;;;;;;;2.70;1.50;;;21.70;53.90;;;;;;5035194;28;20029;-64
2021/10/31 00:51:10;;;;;;;2.75;1.60;;;21.70;53.90;;;;;;5033610;28;20365;-67
2021/10/31 00:53:39;;;;;;;2.30;1.50;;;21.70;53.90;;;;;;5037292;28;20117;-64
2021/10/31 00:56:05;;;;;;;2.25;1.30;;;21.70;54.00;;;;;;5037886;28;20055;-63
2021/10/31 00:58:31;;;;;;;2.10;1.27;;;21.60;53.90;;;;;;5057637;28;20043;-67
2021/10/31 01:00:57;;;;;;;1.75;1.23;;;21.70;54.00;;;;;;5044326;28;20037;-64
2021/10/31 01:03:22;;;;;;;1.90;1.20;;;21.60;54.00;;;;;;5045846;28;20032;-61
2021/10/31 01:05:51;;;;;;;1.85;1.33;;;21.60;54.00;;;;;;5039388;28;20101;-63
2021/10/31 01:08:25;;;;;;;1.83;1.25;;;21.60;54.00;;;;;;5047514;28;20533;-66
2021/10/31 01:11:09;;;;;;;2.25;1.40;;;21.60;54.10;;;;;;5046906;28;20035;-62
2021/10/31 01:13:54;;;;;;;1.42;1.10;;;21.60;54.10;;;;;;5057532;28;20109;-63
2021/10/31 01:16:51;;;;;;;2.22;1.50;;;21.60;54.10;;;;;;5047102;28;20474;-63
2021/10/31 01:19:22;;;;;;;2.50;1.60;;;21.60;54.20;;;;;;5034132;28;20698;-64
2021/10/31 01:21:56;;;;;;;3.58;1.50;;;21.50;54.40;;;;;;5068196;28;20081;-63
2021/10/31 01:24:49;;;;;;;1.85;1.30;;;21.50;54.20;;;;;;5043970;28;20034;-67
2021/10/31 01:27:35;;;;;;;2.05;1.30;;;21.50;54.20;;;;;;5037977;28;20421;-68
2021/10/31 01:30:29;;;;;;;1.88;1.40;;;21.50;54.20;;;;;;5043779;28;20044;-62
2021/10/31 01:33:00;;;;;;;1.40;1.13;;;21.50;54.20;;;;;;5045993;28;20052;-63
2021/10/31 01:35:49;;;;;;;1.65;1.30;;;21.50;54.30;;;;;;5052359;28;20032;-64
2021/10/31 01:38:41;;;;;;;2.35;1.48;;;21.50;54.30;;;;;;5041314;28;20122;-66
2021/10/31 01:41:12;;;;;;;2.67;1.20;;;21.50;54.30;;;;;;5042971;28;20902;-63
2021/10/31 01:44:05;;;;;;;2.42;1.30;;;21.40;54.30;;;;;;5048815;28;20086;-63
2021/10/31 01:46:59;;;;;;;1.70;1.20;;;21.40;54.30;;;;;;5033134;28;20075;-63
2021/10/31 01:49:31;;;;;;;2.10;1.40;;;21.40;54.40;;;;;;5043532;28;20024;-62
2021/10/31 01:52:00;;;;;;;2.00;1.30;;;21.40;54.40;;;;;;5038413;28;20025;-63
2021/10/31 01:54:35;;;;;;;2.10;1.50;;;21.40;54.40;;;;;;5058950;28;20082;-61
2021/10/31 01:57:06;;;;;;;2.03;1.48;;;21.40;54.40;;;;;;5036415;28;20534;-63
2021/10/31 01:59:39;;;;;;;2.75;1.30;;;21.40;54.50;;;;;;5057008;28;20119;-64
2021/10/31 02:02:08;;;;;;;3.13;1.50;;;21.40;54.50;;;;;;5040596;28;20072;-62
2021/10/31 02:04:37;;;;;;;1.70;1.20;;;21.30;54.50;;;;;;5049741;28;20072;-63
2021/10/31 02:07:04;;;;;;;1.75;1.33;;;21.30;54.50;;;;;;5048404;28;20038;-62
2021/10/31 02:09:31;;;;;;;1.95;1.35;;;21.30;54.50;;;;;;5040224;28;20036;-62
2021/10/31 02:11:59;;;;;;;1.75;1.30;;;21.30;54.50;;;;;;5047044;28;20033;-67
2021/10/31 02:14:25;;;;;;;2.55;1.50;;;21.30;54.50;;;;;;5054854;28;20033;-67
2021/10/31 02:16:55;;;;;;;2.20;1.40;;;21.30;54.50;;;;;;5036819;28;20158;-66
2021/10/31 02:19:36;;;;;;;2.05;1.50;;;21.30;54.60;;;;;;5031375;28;20075;-63
2021/10/31 02:22:04;;;;;;;2.42;1.50;;;21.30;54.60;;;;;;5038955;28;20459;-63
2021/10/31 02:24:30;;;;;;;1.55;1.10;;;21.30;54.60;;;;;;5046175;28;20052;-62
2021/10/31 02:26:56;;;;;;;1.83;1.20;;;21.20;54.60;;;;;;5045748;28;20017;-61
2021/10/31 02:29:22;;;;;;;2.00;1.40;;;21.20;54.60;;;;;;5040930;28;20030;-67
2021/10/31 02:31:48;;;;;;;2.53;1.30;;;21.20;55.10;;;;;;5043769;28;20049;-63
2021/10/31 02:34:14;;;;;;;1.92;1.20;;;21.20;54.60;;;;;;5040441;28;20033;-67
2021/10/31 02:36:40;;;;;;;2.13;1.30;;;21.20;54.60;;;;;;5046542;28;20531;-62
2021/10/31 02:39:07;;;;;;;2.00;1.30;;;21.20;54.60;;;;;;5039785;28;20473;-63
2021/10/31 02:41:35;;;;;;;1.98;1.48;;;21.20;54.70;;;;;;5039182;28;20033;-63
2021/10/31 02:44:02;;;;;;;1.60;1.27;;;21.20;54.70;;;;;;5053359;28;20723;-61
2021/10/31 02:46:30;;;;;;;2.03;1.40;;;21.20;54.70;;;;;;5040416;28;20106;-63
2021/10/31 02:48:58;;;;;;;2.42;1.40;;;21.20;54.70;;;;;;5045959;28;20464;-63
2021/10/31 02:51:55;;;;;;;1.52;1.20;;;21.20;54.70;;;;;;5044998;28;20070;-63
2021/10/31 02:54:36;;;;;;;2.17;1.33;;;21.10;54.70;;;;;;5031675;28;20112;-63
2021/10/31 02:57:17;;;;;;;1.60;1.00;;;21.10;54.70;;;;;;5037424;28;20033;-63
2021/10/31 02:59:51;;;;;;;2.15;1.30;;;21.10;54.70;;;;;;5053846;28;20134;-60
2021/10/31 03:02:18;;;;;;;1.55;1.17;;;21.10;54.70;;;;;;5036188;28;20044;-67
2021/10/31 03:04:45;;;;;;;2.03;1.40;;;21.10;54.70;;;;;;5029507;28;20625;-64
2021/10/31 03:07:12;;;;;;;1.80;1.30;;;21.10;54.80;;;;;;5040935;28;20104;-66
2021/10/31 03:09:38;;;;;;;1.77;1.20;;;21.10;54.80;;;;;;5037053;28;20032;-67
2021/10/31 03:12:07;;;;;;;2.08;1.40;;;21.10;54.70;;;;;;5059357;28;20108;-67
2021/10/31 03:14:34;;;;;;;2.60;1.20;;;21.10;54.80;;;;;;5055765;28;20034;-64
2021/10/31 03:17:00;;;;;;;1.35;1.00;;;21.10;54.80;;;;;;5052530;28;20356;-62
2021/10/31 03:19:26;;;;;;;1.55;1.30;;;21.00;54.70;;;;;;5041600;28;20033;-61
2021/10/31 03:21:51;;;;;;;2.30;1.33;;;21.00;54.80;;;;;;5051749;28;20150;-67
2021/10/31 03:24:17;;;;;;;1.65;1.23;;;21.00;54.70;;;;;;5050482;28;20117;-63
2021/10/31 03:26:43;;;;;;;1.80;1.30;;;21.00;54.80;;;;;;5053520;28;20035;-66
2021/10/31 03:29:09;;;;;;;1.90;1.23;;;21.00;54.80;;;;;;5037580;28;20018;-63
2021/10/31 03:31:35;;;;;;;1.50;1.20;;;21.00;54.80;;;;;;5035982;28;20037;-67
2021/10/31 03:34:01;;;;;;;1.45;1.10;;;21.00;54.80;;;;;;5035095;28;20036;-63
2021/10/31 03:36:26;;;;;;;1.90;1.20;;;21.00;54.80;;;;;;5041161;28;20045;-63
2021/10/31 03:38:52;;;;;;;1.40;1.20;;;21.00;54.80;;;;;;5048562;28;20032;-64
2021/10/31 03:41:17;;;;;;;1.80;1.23;;;21.00;54.90;;;;;;5037628;28;20109;-67
2021/10/31 03:43:43;;;;;;;1.67;1.30;;;21.00;54.80;;;;;;5055176;28;20135;-67
2021/10/31 03:46:09;;;;;;;1.23;1.10;;;21.00;54.80;;;;;;5042829;28;20074;-62
2021/10/31 03:48:34;;;;;;;1.48;1.10;;;21.00;54.80;;;;;;5043168;28;20737;-62
2021/10/31 03:51:00;;;;;;;1.67;1.10;;;21.00;55.00;;;;;;5035222;28;20040;-67
2021/10/31 03:53:26;;;;;;;1.48;1.10;;;21.00;54.80;;;;;;5039921;28;20084;-62
2021/10/31 03:55:51;;;;;;;1.30;1.20;;;21.00;54.80;;;;;;5042360;28;20116;-61
2021/10/31 03:58:17;;;;;;;2.03;1.40;;;20.90;54.80;;;;;;5044920;28;20099;-63
2021/10/31 04:00:43;;;;;;;1.77;1.10;;;20.90;54.80;;;;;;5052593;28;20036;-61
2021/10/31 04:03:10;;;;;;;1.60;1.20;;;20.90;54.80;;;;;;5041947;28;20037;-63
2021/10/31 04:05:35;;;;;;;1.90;1.30;;;20.90;54.70;;;;;;5039048;28;20480;-62
2021/10/31 04:08:01;;;;;;;1.40;1.10;;;20.90;54.80;;;;;;5053000;28;20080;-63
2021/10/31 04:10:26;;;;;;;1.70;1.17;;;20.90;54.80;;;;;;5062775;28;20108;-67
2021/10/31 04:12:52;;;;;;;1.55;1.20;;;20.90;54.80;;;;;;5055891;28;20139;-67
2021/10/31 04:15:19;;;;;;;1.83;1.20;;;20.90;54.80;;;;;;5041120;28;20917;-66
2021/10/31 04:17:45;;;;;;;1.85;1.40;;;20.90;54.80;;;;;;5044322;28;20037;-66
2021/10/31 04:20:11;;;;;;;1.77;1.30;;;20.90;54.80;;;;;;5042237;28;20048;-63
2021/10/31 04:22:36;;;;;;;1.63;1.20;;;20.90;54.80;;;;;;5045486;28;20056;-62
2021/10/31 04:25:06;;;;;;;1.63;1.20;;;20.90;54.80;;;;;;5041697;28;20068;-67
2021/10/31 04:27:32;;;;;;;1.63;1.20;;;20.90;54.80;;;;;;5043079;28;20060;-62
2021/10/31 04:29:57;;;;;;;1.80;1.20;;;20.90;54.80;;;;;;5046634;28;20057;-63
2021/10/31 04:32:23;;;;;;;1.45;1.20;;;20.90;54.80;;;;;;5035747;28;20115;-63
2021/10/31 04:34:49;;;;;;;1.92;1.02;;;20.90;54.80;;;;;;5033691;28;20028;-63
2021/10/31 04:37:15;;;;;;;1.60;1.20;;;20.90;54.80;;;;;;5028574;28;20052;-63
2021/10/31 04:39:42;;;;;;;2.22;1.35;;;20.90;54.80;;;;;;5039520;28;20047;-66
2021/10/31 04:42:10;;;;;;;1.58;1.20;;;20.90;54.80;;;;;;5050931;28;20028;-67
2021/10/31 04:44:38;;;;;;;1.95;1.30;;;20.90;54.80;;;;;;5038491;28;20032;-65
2021/10/31 04:47:05;;;;;;;1.73;1.10;;;20.90;54.80;;;;;;5042905;28;20017;-63
2021/10/31 04:49:31;;;;;;;1.50;1.23;;;20.90;54.90;;;;;;5051593;28;20044;-67
2021/10/31 04:51:57;;;;;;;1.50;1.20;;;20.90;54.90;;;;;;5047030;28;20318;-64
2021/10/31 04:54:23;;;;;;;1.63;1.20;;;20.80;54.80;;;;;;5033159;28;20770;-62
2021/10/31 04:56:49;;;;;;;1.67;1.17;;;20.80;54.80;;;;;;5035441;28;20032;-61
2021/10/31 04:59:14;;;;;;;2.78;1.20;;;20.80;54.80;;;;;;5051911;28;20024;-63
2021/10/31 05:01:40;;;;;;;1.45;1.10;;;20.80;54.90;;;;;;5051415;28;20029;-67
2021/10/31 05:04:06;;;;;;;1.60;1.20;;;20.80;54.90;;;;;;5048468;28;20519;-62
2021/10/31 05:06:31;;;;;;;1.50;1.17;;;20.80;54.90;;;;;;5060747;28;20040;-64
2021/10/31 05:08:57;;;;;;;1.60;1.00;;;20.80;54.90;;;;;;5043035;28;20121;-67
2021/10/31 05:11:25;;;;;;;1.80;1.20;;;20.80;54.90;;;;;;5059277;28;20467;-63
2021/10/31 05:13:50;;;;;;;1.83;1.20;;;20.80;55.00;;;;;;5053670;28;20464;-62
2021/10/31 05:16:16;;;;;;;1.70;1.20;;;20.80;54.90;;;;;;5045111;28;20116;-62
2021/10/31 05:18:42;;;;;;;2.33;1.30;;;20.80;55.00;;;;;;5058098;28;20036;-61
2021/10/31 05:21:08;;;;;;;1.48;1.15;;;20.80;55.00;;;;;;5048406;28;20349;-61
2021/10/31 05:23:34;;;;;;;1.55;1.25;;;20.80;55.00;;;;;;5049012;28;20094;-67
2021/10/31 05:25:59;;;;;;;1.83;1.30;;;20.80;55.00;;;;;;5046657;28;20032;-66
2021/10/31 05:28:25;;;;;;;1.00;0.90;;;20.70;54.90;;;;;;5048164;28;20031;-63
2021/10/31 05:30:52;;;;;;;1.30;1.20;;;20.70;54.90;;;;;;5037798;28;20087;-62
2021/10/31 05:33:19;;;;;;;1.83;1.27;;;20.80;55.00;;;;;;5050722;28;20460;-64
2021/10/31 05:35:46;;;;;;;1.75;1.23;;;20.70;54.90;;;;;;5051956;28;20097;-62
2021/10/31 05:38:13;;;;;;;1.20;1.00;;;20.70;55.00;;;;;;5043313;28;20036;-61
2021/10/31 05:40:39;;;;;;;1.35;1.10;;;20.70;55.00;;;;;;5040365;28;20693;-63
2021/10/31 05:43:05;;;;;;;1.50;1.20;;;20.70;55.00;;;;;;5051496;28;20065;-61
2021/10/31 05:45:31;;;;;;;1.50;1.00;;;20.70;55.00;;;;;;5046517;28;20350;-61
2021/10/31 05:47:57;;;;;;;1.38;1.15;;;20.70;55.00;;;;;;5051158;28;20024;-67
2021/10/31 05:50:22;;;;;;;1.60;1.10;;;20.70;55.00;;;;;;5046015;28;20029;-67
2021/10/31 05:52:48;;;;;;;1.25;1.10;;;20.70;55.00;;;;;;5049580;28;20503;-63
2021/10/31 05:55:16;;;;;;;1.08;0.93;;;20.70;55.00;;;;;;5060185;28;20026;-62
2021/10/31 05:57:43;;;;;;;1.40;1.23;;;20.70;55.00;;;;;;5047155;28;20427;-66
2021/10/31 06:00:10;;;;;;;1.13;0.93;;;20.70;55.00;;;;;;5030574;28;20044;-65
2021/10/31 06:02:36;;;;;;;1.42;1.00;;;20.70;55.00;;;;;;5053186;28;20029;-61
2021/10/31 06:05:04;;;;;;;1.15;1.00;;;20.70;55.00;;;;;;5042383;28;20103;-63
2021/10/31 06:07:31;;;;;;;2.17;1.00;;;20.70;55.00;;;;;;5049022;28;20634;-62
2021/10/31 06:09:57;;;;;;;1.38;1.13;;;20.70;55.10;;;;;;5040193;28;20195;-61
2021/10/31 06:12:23;;;;;;;1.95;1.20;;;20.70;55.10;;;;;;5057927;28;20403;-61
2021/10/31 06:14:49;;;;;;;1.58;1.20;;;20.70;55.10;;;;;;5057488;28;20044;-62
2021/10/31 06:17:14;;;;;;;1.30;1.10;;;20.70;55.10;;;;;;5065785;28;20024;-65
2021/10/31 06:19:41;;;;;;;1.55;1.20;;;20.70;55.10;;;;;;5057511;28;20033;-63
2021/10/31 06:22:07;;;;;;;1.73;1.38;;;20.70;55.10;;;;;;5046677;28;20587;-63
2021/10/31 06:24:33;;;;;;;1.42;1.10;;;20.70;55.10;;;;;;5052286;28;20570;-62
2021/10/31 06:26:59;;;;;;;1.58;1.10;;;20.60;55.00;;;;;;5042196;28;20095;-62
2021/10/31 06:29:25;;;;;;;1.70;1.10;;;20.60;55.10;;;;;;5057289;28;20436;-61
2021/10/31 06:31:52;;;;;;;1.58;1.13;;;20.60;55.10;;;;;;5047366;28;20036;-63
2021/10/31 06:34:17;;;;;;;1.58;1.20;;;20.60;55.10;;;;;;5039123;28;20029;-60
2021/10/31 06:36:44;;;;;;;1.38;1.10;;;20.60;55.10;;;;;;5040859;28;20029;-63
2021/10/31 06:39:10;;;;;;;1.15;1.00;;;20.60;55.10;;;;;;5035860;28;20909;-65
2021/10/31 06:41:36;;;;;;;1.58;1.10;;;20.60;55.10;;;;;;5035943;28;20120;-64
2021/10/31 06:44:02;;;;;;;1.23;1.00;;;20.60;55.10;;;;;;5045722;28;20112;-64
2021/10/31 06:46:28;;;;;;;1.55;1.08;;;20.60;55.10;;;;;;5036963;28;20036;-64
2021/10/31 06:48:54;;;;;;;1.95;1.30;;;20.60;55.10;;;;;;5046278;28;20036;-63
2021/10/31 06:51:20;;;;;;;1.30;0.88;;;20.60;55.10;;;;;;5050477;28;20037;-65
2021/10/31 06:53:46;;;;;;;1.45;1.17;;;20.60;55.10;;;;;;5041225;28;20035;-62
2021/10/31 06:56:12;;;;;;;1.38;1.05;;;20.60;55.10;;;;;;5040366;28;20029;-61
2021/10/31 06:58:38;;;;;;;1.50;1.10;;;20.60;55.20;;;;;;5047837;28;20481;-64
2021/10/31 07:01:04;;;;;;;1.33;1.00;;;20.60;55.20;;;;;;5040211;28;20039;-64
2021/10/31 07:03:29;;;;;;;2.08;1.20;;;20.60;55.20;;;;;;5040887;28;20055;-62
2021/10/31 07:05:55;;;;;;;1.52;1.10;;;20.60;55.30;;;;;;5041486;28;20699;-61
2021/10/31 07:08:21;;;;;;;1.88;1.10;;;20.60;55.30;;;;;;5037774;28;20036;-67
2021/10/31 07:10:47;;;;;;;2.53;1.20;;;20.60;55.40;;;;;;5038702;28;20020;-63
2021/10/31 07:13:13;;;;;;;1.80;1.20;;;20.60;55.40;;;;;;5032081;28;20061;-67
2021/10/31 07:15:38;;;;;;;1.23;1.05;;;20.60;55.40;;;;;;5034335;28;20481;-63
2021/10/31 07:18:04;;;;;;;1.55;1.10;;;20.60;55.50;;;;;;5036012;28;20036;-67
2021/10/31 07:20:31;;;;;;;1.67;1.10;;;20.60;55.40;;;;;;5059327;28;20051;-63
2021/10/31 07:22:56;;;;;;;1.55;1.20;;;20.60;55.40;;;;;;5042119;28;20044;-60
2021/10/31 07:25:23;;;;;;;1.85;1.10;;;20.60;55.50;;;;;;5036458;28;20033;-67
2021/10/31 07:27:51;;;;;;;1.42;1.10;;;20.60;55.50;;;;;;5032120;28;20082;-62
2021/10/31 07:30:16;;;;;;;1.73;1.15;;;20.50;55.50;;;;;;5045363;28;20473;-62
2021/10/31 07:32:42;;;;;;;1.40;1.10;;;20.60;55.50;;;;;;5048055;28;20065;-64
2021/10/31 07:35:08;;;;;;;1.42;1.17;;;20.60;55.50;;;;;;5037476;28;20103;-63
2021/10/31 07:37:34;;;;;;;2.05;1.10;;;20.60;55.50;;;;;;5040807;28;20041;-62
2021/10/31 07:40:00;;;;;;;1.60;1.15;;;20.50;55.50;;;;;;5033224;28;20032;-63
2021/10/31 07:42:30;;;;;;;1.65;1.20;;;20.60;55.60;;;;;;5045235;28;20033;-64
2021/10/31 07:44:59;;;;;;;3.78;1.20;;;20.50;55.50;;;;;;5033463;28;20091;-62
2021/10/31 07:47:25;;;;;;;2.28;1.10;;;20.60;55.60;;;;;;5042380;28;20066;-63
2021/10/31 07:49:51;;;;;;;1.77;1.20;;;20.60;55.70;;;;;;5034813;28;20043;-65
2021/10/31 07:52:21;;;;;;;1.38;1.08;;;20.60;55.70;;;;;;5031574;28;20025;-63
2021/10/31 07:54:49;;;;;;;1.98;1.20;;;20.60;55.70;;;;;;5042266;28;20105;-62
2021/10/31 07:57:15;;;;;;;1.52;1.20;;;20.60;55.70;;;;;;5038781;28;20031;-63
2021/10/31 07:59:41;;;;;;;3.17;1.20;;;20.60;55.80;;;;;;5036227;28;20024;-64
2021/10/31 08:02:07;;;;;;;1.60;1.13;;;20.50;55.80;;;;;;5036306;28;20432;-63
2021/10/31 08:04:33;;;;;;;1.48;1.10;;;20.60;55.90;;;;;;5051246;28;20022;-62
2021/10/31 08:06:59;;;;;;;2.53;1.30;;;20.60;55.90;;;;;;5044852;28;20029;-63
2021/10/31 08:09:24;;;;;;;2.17;1.20;;;20.60;55.90;;;;;;5048412;28;20077;-63
2021/10/31 08:11:50;;;;;;;1.45;1.00;;;20.60;55.90;;;;;;5037576;28;20427;-63
2021/10/31 08:14:16;;;;;;;1.92;1.10;;;20.60;56.00;;;;;;5045703;28;20060;-62
2021/10/31 08:16:41;;;;;;;1.55;1.15;;;20.60;56.00;;;;;;5040646;28;20033;-65
2021/10/31 08:19:08;;;;;;;2.22;1.27;;;20.60;56.00;;;;;;5039592;28;20025;-64
2021/10/31 08:21:35;;;;;;;2.17;1.40;;;20.60;56.00;;;;;;5033136;28;20068;-63
2021/10/31 08:24:01;;;;;;;1.90;1.20;;;20.60;56.10;;;;;;5036396;28;20029;-63
2021/10/31 08:26:27;;;;;;;1.48;1.08;;;20.60;56.00;;;;;;5036515;28;20546;-64
2021/10/31 08:28:55;;;;;;;2.70;1.20;;;20.60;56.00;;;;;;5048577;28;20087;-64
2021/10/31 08:31:31;;;;;;;2.03;1.30;;;20.60;56.00;;;;;;5040762;28;20535;-66
2021/10/31 08:33:59;;;;;;;1.60;1.10;;;20.60;55.90;;;;;;5040875;28;20040;-67
2021/10/31 08:36:27;;;;;;;3.42;1.33;;;20.60;55.90;;;;;;5033966;28;20047;-63
2021/10/31 08:38:53;;;;;;;2.33;1.30;;;20.60;56.00;;;;;;5034361;28;20044;-63
2021/10/31 08:41:21;;;;;;;2.80;1.70;;;20.60;56.00;;;;;;5033474;28;20042;-62
2021/10/31 08:43:48;;;;;;;3.05;1.63;;;20.70;56.10;;;;;;5038520;28;20048;-67
2021/10/31 08:46:15;;;;;;;2.22;1.60;;;20.90;56.10;;;;;;5035308;28;20032;-62
2021/10/31 08:48:41;;;;;;;4.28;1.67;;;21.00;55.80;;;;;;5038914;28;20036;-66
2021/10/31 08:51:07;;;;;;;2.65;1.70;;;21.10;55.50;;;;;;5033908;28;20037;-65
2021/10/31 08:53:33;;;;;;;3.17;1.90;;;21.30;55.20;;;;;;5044524;28;20074;-66
2021/10/31 08:56:00;;;;;;;2.70;1.63;;;21.40;55.00;;;;;;5038026;28;20026;-66
2021/10/31 08:58:27;;;;;;;4.75;1.90;;;21.50;54.60;;;;;;5041471;28;20052;-66
2021/10/31 09:00:53;;;;;;;2.75;1.70;;;21.60;54.40;;;;;;5037843;28;20088;-64
2021/10/31 09:03:19;;;;;;;2.80;1.80;;;21.80;54.20;;;;;;5039204;28;20033;-63
2021/10/31 09:05:45;;;;;;;2.45;1.67;;;21.80;54.00;;;;;;5030981;28;20025;-64
2021/10/31 09:08:10;;;;;;;2.75;1.75;;;22.00;53.90;;;;;;5033692;28;20850;-62
2021/10/31 09:10:38;;;;;;;2.63;1.73;;;22.10;53.70;;;;;;5032783;28;20065;-63
2021/10/31 09:13:04;;;;;;;3.60;2.03;;;22.10;53.40;;;;;;5037229;28;20056;-66
2021/10/31 09:15:31;;;;;;;4.10;1.80;;;22.20;53.30;;;;;;5038574;28;20448;-62
2021/10/31 09:17:57;;;;;;;3.53;1.90;;;22.40;53.10;;;;;;5034383;28;20029;-64
2021/10/31 09:20:25;;;;;;;4.15;2.17;;;22.50;52.90;;;;;;5036950;28;20055;-66
2021/10/31 09:23:00;;;;;;;9.13;4.13;;;22.50;52.80;;;;;;5031234;28;20033;-65
2021/10/31 09:25:27;;;;;;;24.13;10.00;;;22.60;52.60;;;;;;5037656;28;20163;-62
2021/10/31 09:27:54;;;;;;;33.90;14.43;;;22.50;52.60;;;;;;5037864;28;20508;-66
2021/10/31 09:30:21;;;;;;;37.65;16.50;;;22.50;52.80;;;;;;5031740;28;20755;-65
2021/10/31 09:32:49;;;;;;;47.60;19.95;;;22.50;52.90;;;;;;5032259;28;20541;-65
2021/10/31 09:35:27;;;;;;;55.00;22.90;;;22.50;53.00;;;;;;5029267;28;20044;-65
2021/10/31 09:38:02;;;;;;;55.50;23.20;;;22.40;53.10;;;;;;5026016;28;20032;-63
2021/10/31 09:40:29;;;;;;;54.47;24.45;;;22.50;53.20;;;;;;5030751;28;20029;-63
2021/10/31 09:42:57;;;;;;;59.45;24.55;;;22.50;53.40;;;;;;5033400;28;20091;-66
2021/10/31 09:45:24;;;;;;;64.30;27.35;;;22.50;53.30;;;;;;5034604;28;20404;-64
2021/10/31 09:47:55;;;;;;;62.28;27.73;;;22.50;53.40;;;;;;5030533;28;20725;-66
2021/10/31 09:50:22;;;;;;;68.65;29.25;;;22.50;53.70;;;;;;5031163;28;20405;-62
2021/10/31 09:52:48;;;;;;;70.28;30.65;;;22.60;53.40;;;;;;5029735;28;20025;-64
2021/10/31 09:55:14;;;;;;;72.32;29.77;;;22.60;53.20;;;;;;5029358;28;20069;-67
2021/10/31 09:57:39;;;;;;;74.78;32.08;;;22.60;53.20;;;;;;5032179;28;20040;-65
2021/10/31 10:00:05;;;;;;;71.95;30.67;;;22.60;53.10;;;;;;5039050;28;20055;-67
2021/10/31 10:05:37;;;;;;;;;;;22.70;53.00;;;;;;5030626;28;20025;-64
2021/10/31 10:08:15;;;;;;;68.97;30.25;;;22.60;52.90;;;;;;5032632;28;19924;-64
2021/10/31 10:10:47;;;;;;;67.15;29.08;;;22.60;52.80;;;;;;5036281;28;20021;-62
2021/10/31 10:13:28;;;;;;;66.53;28.60;;;22.70;52.90;;;;;;5032494;28;20131;-63
2021/10/31 10:16:20;;;;;;;62.88;28.27;;;22.70;52.90;;;;;;5056705;28;20049;-64
2021/10/31 10:18:46;;;;;;;55.20;25.30;;;22.70;52.80;;;;;;5037229;28;20045;-67
2021/10/31 10:21:26;;;;;;;57.78;24.52;;;22.70;52.90;;;;;;5031053;28;20080;-63
2021/10/31 10:23:55;;;;;;;54.47;24.52;;;22.70;52.90;;;;;;5028599;28;20036;-63
2021/10/31 10:26:53;;;;;;;51.63;23.50;;;22.70;52.90;;;;;;5023833;28;20025;-64
2021/10/31 10:29:30;;;;;;;55.85;23.92;;;22.70;53.10;;;;;;5023817;28;20140;-63
2021/10/31 10:32:01;;;;;;;54.05;23.50;;;22.70;53.10;;;;;;5029265;28;20695;-63
2021/10/31 10:37:18;;;;;;;57.67;24.52;;;22.80;53.40;;;;;;5034889;28;20032;-63
2021/10/31 10:40:05;;;;;;;51.05;22.55;;;22.80;53.40;;;;;;5029121;28;20044;-63
2021/10/31 10:42:36;;;;;;;50.00;22.35;;;22.90;53.40;;;;;;5035327;28;20029;-62
2021/10/31 10:45:06;;;;;;;51.38;23.40;;;22.90;53.40;;;;;;5033142;28;20025;-62
2021/10/31 10:47:32;;;;;;;48.78;22.10;;;22.90;53.50;;;;;;5028679;28;20649;-63
2021/10/31 10:50:00;;;;;;;46.95;21.33;;;22.90;53.40;;;;;;5038464;28;20036;-62
2021/10/31 10:52:31;;;;;;;43.60;20.63;;;22.90;53.40;;;;;;5036647;28;20133;-63
2021/10/31 10:55:01;;;;;;;45.10;20.88;;;22.90;53.30;;;;;;5029642;28;20040;-62
2021/10/31 10:57:30;;;;;;;49.70;21.55;;;23.00;53.30;;;;;;5030237;28;20055;-66
2021/10/31 11:00:12;;;;;;;43.78;20.42;;;23.00;53.30;;;;;;5033760;28;20033;-66
2021/10/31 11:02:38;;;;;;;40.53;19.02;;;23.00;53.40;;;;;;5037222;28;20377;-65
2021/10/31 11:05:10;;;;;;;43.67;19.10;;;23.00;53.30;;;;;;5034178;28;20471;-64
2021/10/31 11:07:36;;;;;;;40.33;18.77;;;23.00;53.30;;;;;;5044031;28;20103;-67
2021/10/31 11:10:07;;;;;;;37.00;18.63;;;23.00;53.30;;;;;;5033268;28;20033;-63
2021/10/31 11:12:35;;;;;;;37.47;17.35;;;23.00;53.30;;;;;;5044518;28;20046;-63
2021/10/31 11:15:22;;;;;;;35.45;16.73;;;23.00;53.30;;;;;;5038922;28;20752;-63
2021/10/31 11:17:50;;;;;;;35.20;17.48;;;23.00;53.30;;;;;;5035870;28;20025;-64
2021/10/31 11:20:20;;;;;;;34.78;16.02;;;23.10;53.30;;;;;;5039265;28;20029;-63
2021/10/31 11:22:49;;;;;;;31.55;15.75;;;23.00;53.30;;;;;;5034751;28;20032;-63
2021/10/31 11:25:17;;;;;;;35.00;16.30;;;23.10;53.30;;;;;;5036000;28;20053;-65
2021/10/31 11:27:45;;;;;;;39.10;17.92;;;23.10;53.30;;;;;;5034912;28;20026;-64
2021/10/31 11:30:12;;;;;;;32.03;15.73;;;23.10;53.30;;;;;;5042387;28;20036;-67
2021/10/31 11:32:40;;;;;;;29.50;14.45;;;23.00;53.30;;;;;;5039906;28;20021;-62
2021/10/31 11:35:08;;;;;;;31.05;15.38;;;23.10;53.30;;;;;;5038218;28;20128;-61
2021/10/31 11:37:46;;;;;;;31.35;15.73;;;23.10;53.40;;;;;;5036331;28;20539;-64
2021/10/31 11:40:13;;;;;;;33.97;15.85;;;23.10;53.30;;;;;;5029418;28;20024;-64
2021/10/31 11:42:47;;;;;;;32.63;15.63;;;23.10;53.30;;;;;;5048358;28;20032;-66
2021/10/31 11:45:21;;;;;;;27.98;14.32;;;23.20;53.40;;;;;;5033301;28;20037;-63
2021/10/31 11:48:07;;;;;;;28.25;14.80;;;23.20;53.40;;;;;;5025953;28;20029;-67
2021/10/31 11:50:34;;;;;;;28.65;14.57;;;23.20;53.40;;;;;;5025003;28;20037;-67
2021/10/31 11:53:01;;;;;;;27.30;13.65;;;23.20;53.30;;;;;;5039767;28;20043;-67
2021/10/31 11:55:30;;;;;;;28.40;14.25;;;23.20;53.30;;;;;;5031475;28;20439;-65
2021/10/31 11:58:06;;;;;;;25.88;13.18;;;23.20;53.30;;;;;;5029443;28;20122;-62
2021/10/31 12:00:33;;;;;;;26.10;12.60;;;23.20;53.40;;;;;;5039299;28;20677;-64
2021/10/31 12:03:02;;;;;;;23.13;11.77;;;23.20;53.30;;;;;;5036058;28;20029;-66
2021/10/31 12:05:38;;;;;;;24.52;12.35;;;23.20;53.40;;;;;;5036301;28;20029;-62
2021/10/31 12:08:05;;;;;;;27.27;13.07;;;23.20;53.40;;;;;;5024546;28;20820;-63
2021/10/31 12:10:49;;;;;;;24.48;12.55;;;23.20;53.30;;;;;;5032078;28;20112;-64
2021/10/31 12:13:20;;;;;;;24.83;12.82;;;23.20;53.20;;;;;;5040106;28;20108;-63
2021/10/31 12:16:04;;;;;;;25.88;12.55;;;23.30;53.20;;;;;;5031063;28;20029;-65
2021/10/31 12:18:49;;;;;;;23.40;12.02;;;23.30;53.20;;;;;;5047879;28;20036;-62
2021/10/31 12:21:22;;;;;;;21.45;11.25;;;23.30;53.10;;;;;;5034146;28;20044;-65
2021/10/31 12:23:59;;;;;;;21.02;11.40;;;23.30;53.00;;;;;;5029205;28;20132;-65
2021/10/31 12:26:31;;;;;;;23.45;11.02;;;23.30;53.00;;;;;;5035991;28;20024;-63
2021/10/31 12:29:20;;;;;;;21.38;11.50;;;23.30;53.00;;;;;;5030626;28;20413;-62
2021/10/31 12:32:00;;;;;;;21.17;10.90;;;23.30;53.00;;;;;;5023709;28;20041;-61
2021/10/31 12:34:43;;;;;;;18.80;10.85;;;23.40;52.90;;;;;;5046039;28;20033;-63
2021/10/31 12:37:26;;;;;;;18.02;9.95;;;23.40;52.80;;;;;;5020017;28;20067;-62
2021/10/31 12:39:58;;;;;;;20.15;9.13;;;23.40;52.80;;;;;;5034508;28;20025;-64
2021/10/31 12:42:47;;;;;;;20.33;10.18;;;23.40;52.80;;;;;;5026036;28;20650;-64
2021/10/31 12:45:16;;;;;;;17.92;9.52;;;23.40;52.70;;;;;;5022243;28;20045;-64
2021/10/31 12:47:57;;;;;;;17.65;10.13;;;23.40;52.70;;;;;;5031752;28;20025;-65
2021/10/31 12:50:24;;;;;;;18.02;8.70;;;23.40;52.70;;;;;;5029868;28;20029;-62
2021/10/31 12:53:08;;;;;;;18.63;9.52;;;23.40;52.80;;;;;;5028963;28;20036;-64
2021/10/31 12:55:34;;;;;;;19.92;9.48;;;23.50;52.90;;;;;;5031622;28;20025;-63
2021/10/31 12:58:21;;;;;;;17.60;8.77;;;23.40;52.80;;;;;;5025561;28;20110;-66